createdAt,value
2022-10-01T00:00:27.384Z,35.60
2022-10-01T00:01:30.307Z,33.50
2022-10-01T00:02:31.815Z,35.22
2022-10-01T00:03:35.715Z,33.00
2022-10-01T00:04:37.562Z,35.88
2022-10-01T00:05:39.113Z,36.67
2022-10-01T00:06:40.628Z,36.58
2022-10-01T00:07:44.214Z,35.45
2022-10-01T00:08:47.419Z,34.15
2022-10-01T00:09:48.841Z,35.70
2022-10-01T00:10:50.251Z,36.25
2022-10-01T00:11:51.722Z,35.72
2022-10-01T00:12:53.210Z,35.92
2022-10-01T00:13:54.862Z,36.83
2022-10-01T00:14:56.350Z,37.85
2022-10-01T00:15:57.814Z,39.50
2022-10-01T00:17:00.618Z,37.90
2022-10-01T00:18:02.078Z,33.67
2022-10-01T00:19:03.655Z,39.15
2022-10-01T00:20:13.999Z,33.38
2022-10-01T00:21:18.087Z,34.10
2022-10-01T00:22:19.706Z,32.50
2022-10-01T00:23:21.156Z,33.83
2022-10-01T00:24:22.590Z,36.22
2022-10-01T00:25:24.009Z,35.38
2022-10-01T00:26:27.759Z,34.38
2022-10-01T00:27:29.774Z,37.90
2022-10-01T00:28:31.244Z,31.42
2022-10-01T00:29:32.842Z,37.33
2022-10-01T00:30:38.376Z,34.15
2022-10-01T00:31:42.137Z,31.60
2022-10-01T00:32:44.955Z,28.92
2022-10-01T00:33:46.457Z,31.20
2022-10-01T00:34:48.198Z,33.33
2022-10-01T00:35:49.632Z,32.83
2022-10-01T00:36:51.078Z,34.08
2022-10-01T00:37:52.550Z,30.17
2022-10-01T00:38:54.017Z,30.35
2022-10-01T00:39:55.505Z,32.78
2022-10-01T00:40:56.945Z,32.83
2022-10-01T00:41:58.436Z,30.48
2022-10-01T00:42:59.859Z,30.05
2022-10-01T00:44:22.821Z,36.00
2022-10-01T00:45:24.278Z,28.92
2022-10-01T00:46:29.310Z,26.98
2022-10-01T00:47:35.320Z,31.90
2022-10-01T00:48:47.635Z,31.60
2022-10-01T00:49:55.462Z,31.75
2022-10-01T00:51:00.759Z,33.67
2022-10-01T00:52:06.113Z,29.98
2022-10-01T00:53:11.340Z,30.35
2022-10-01T00:54:17.013Z,30.63
2022-10-01T00:55:23.390Z,30.17
2022-10-01T00:56:25.260Z,28.30
2022-10-01T00:57:27.510Z,29.70
2022-10-01T00:58:28.957Z,30.58
2022-10-01T00:59:31.570Z,32.38
2022-10-01T01:00:33.254Z,31.83
2022-10-01T01:01:37.125Z,27.10
2022-10-01T01:02:38.917Z,28.02
2022-10-01T01:03:41.736Z,33.45
2022-10-01T01:04:43.220Z,29.20
2022-10-01T01:05:44.667Z,26.45
2022-10-01T01:06:49.562Z,27.13
2022-10-01T01:07:53.299Z,25.83
2022-10-01T01:08:55.896Z,28.17
2022-10-01T01:09:57.859Z,27.10
2022-10-01T01:11:07.608Z,22.73
2022-10-01T01:12:21.713Z,27.33
2022-10-01T01:13:31.600Z,25.27
2022-10-01T01:14:40.487Z,28.15
2022-10-01T01:15:47.583Z,26.95
2022-10-01T01:16:54.145Z,25.85
2022-10-01T01:18:01.657Z,24.67
2022-10-01T01:19:16.090Z,26.30
2022-10-01T01:20:32.248Z,24.13
2022-10-01T01:21:37.105Z,24.30
2022-10-01T01:22:47.167Z,26.10
2022-10-01T01:24:20.988Z,25.00
2022-10-01T01:25:29.717Z,24.42
2022-10-01T01:26:41.541Z,21.25
2022-10-01T01:27:49.496Z,25.25
2022-10-01T01:28:57.636Z,24.95
2022-10-01T01:30:03.720Z,23.92
2022-10-01T01:31:10.789Z,23.35
2022-10-01T01:32:17.862Z,25.30
2022-10-01T01:33:22.762Z,23.73
2022-10-01T01:34:29.151Z,23.98
2022-10-01T01:35:34.736Z,23.05
2022-10-01T01:36:37.190Z,26.73
2022-10-01T01:37:52.286Z,22.63
2022-10-01T01:38:57.877Z,24.77
2022-10-01T01:40:01.648Z,23.83
2022-10-01T01:41:05.703Z,25.77
2022-10-01T01:42:20.689Z,22.83
2022-10-01T01:43:26.703Z,23.40
2022-10-01T01:44:34.948Z,22.88
2022-10-01T01:45:39.601Z,24.67
2022-10-01T01:46:46.158Z,26.33
2022-10-01T01:47:48.681Z,22.17
2022-10-01T01:48:52.420Z,26.02
2022-10-01T01:49:53.949Z,25.83
2022-10-01T01:51:01.971Z,29.70
2022-10-01T01:52:07.924Z,26.58
2022-10-01T01:53:09.526Z,25.52
2022-10-01T01:54:11.171Z,27.00
2022-10-01T01:55:13.184Z,27.92
2022-10-01T01:56:14.725Z,29.08
2022-10-01T01:57:18.702Z,26.25
2022-10-01T01:58:20.500Z,26.55
2022-10-01T01:59:22.106Z,28.50
2022-10-01T02:00:24.991Z,28.95
2022-10-01T02:01:37.569Z,27.92
2022-10-01T02:02:44.167Z,25.08
2022-10-01T02:03:45.695Z,27.88
2022-10-01T02:04:50.253Z,27.10
2022-10-01T02:06:10.160Z,28.05
2022-10-01T02:07:54.470Z,29.98
2022-10-01T02:09:07.686Z,27.88
2022-10-01T02:10:18.613Z,30.20
2022-10-01T02:11:26.389Z,32.78
2022-10-01T02:12:40.091Z,29.45
2022-10-01T02:13:51.403Z,27.65
2022-10-01T02:14:56.326Z,29.90
2022-10-01T02:16:11.316Z,27.42
2022-10-01T02:17:16.537Z,30.08
2022-10-01T02:18:25.512Z,27.50
2022-10-01T02:19:33.142Z,27.40
2022-10-01T02:20:38.639Z,30.17
2022-10-01T02:21:41.698Z,31.48
2022-10-01T02:22:50.030Z,28.60
2022-10-01T02:23:56.395Z,29.55
2022-10-01T02:25:01.575Z,29.38
2022-10-01T02:26:10.697Z,32.22
2022-10-01T02:27:17.784Z,33.92
2022-10-01T02:28:23.283Z,32.40
2022-10-01T02:29:24.924Z,34.92
2022-10-01T02:30:28.475Z,32.30
2022-10-01T02:31:32.997Z,32.75
2022-10-01T02:32:37.869Z,30.73
2022-10-01T02:33:40.971Z,31.98
2022-10-01T02:34:45.172Z,32.50
2022-10-01T02:35:48.130Z,34.03
2022-10-01T02:36:52.439Z,33.67
2022-10-01T02:37:56.273Z,33.13
2022-10-01T02:39:00.237Z,33.95
2022-10-01T02:40:03.332Z,35.00
2022-10-01T02:41:08.608Z,50.20
2022-10-01T02:42:14.609Z,48.65
2022-10-01T02:43:18.891Z,60.60
2022-10-01T02:44:23.905Z,49.10
2022-10-01T02:45:27.410Z,57.20
2022-10-01T02:46:35.943Z,50.10
2022-10-01T02:47:41.292Z,46.20
2022-10-01T02:48:43.589Z,84.25
2022-10-01T02:49:45.322Z,88.97
2022-10-01T02:50:51.395Z,133.77
2022-10-01T02:51:59.430Z,184.18
2022-10-01T02:53:05.737Z,267.35
2022-10-01T02:54:13.196Z,347.05
2022-10-01T02:55:17.810Z,312.33
2022-10-01T02:56:19.293Z,448.38
2022-10-01T02:57:20.971Z,399.58
2022-10-01T02:58:22.512Z,257.10
2022-10-01T02:59:23.944Z,279.17
2022-10-01T03:00:25.608Z,286.35
2022-10-01T03:01:27.622Z,465.65
2022-10-01T03:02:31.935Z,301.08
2022-10-01T03:03:33.390Z,555.80
2022-10-01T03:04:34.874Z,419.23
2022-10-01T03:05:36.327Z,468.52
2022-10-01T03:06:37.785Z,425.98
2022-10-01T03:07:39.205Z,494.10
2022-10-01T03:08:40.608Z,546.30
2022-10-01T03:09:42.382Z,580.05
2022-10-01T03:10:46.731Z,576.67
2022-10-01T03:11:48.470Z,534.00
2022-10-01T03:12:49.946Z,566.00
2022-10-01T03:13:51.425Z,505.13
2022-10-01T03:14:52.934Z,516.13
2022-10-01T03:15:54.387Z,600.17
2022-10-01T03:16:55.859Z,562.65
2022-10-01T03:17:58.637Z,352.27
2022-10-01T03:19:00.052Z,521.40
2022-10-01T03:20:01.679Z,485.23
2022-10-01T03:21:03.118Z,360.83
2022-10-01T03:22:05.029Z,459.35
2022-10-01T03:23:06.445Z,520.25
2022-10-01T03:24:07.916Z,498.35
2022-10-01T03:25:09.507Z,441.65
2022-10-01T03:26:10.971Z,490.13
2022-10-01T03:27:12.403Z,530.63
2022-10-01T03:28:13.861Z,454.27
2022-10-01T03:29:15.331Z,439.98
2022-10-01T03:30:16.852Z,603.13
2022-10-01T03:31:18.390Z,526.65
2022-10-01T03:32:19.888Z,496.58
2022-10-01T03:33:22.627Z,595.75
2022-10-01T03:34:24.095Z,557.17
2022-10-01T03:35:25.566Z,342.35
2022-10-01T03:36:27.081Z,389.75
2022-10-01T03:37:28.536Z,504.02
2022-10-01T03:38:30.293Z,360.15
2022-10-01T03:39:31.852Z,169.32
2022-10-01T03:40:33.424Z,325.38
2022-10-01T03:41:35.192Z,218.38
2022-10-01T03:42:36.776Z,263.10
2022-10-01T03:43:38.231Z,349.52
2022-10-01T03:44:39.671Z,507.13
2022-10-01T03:45:41.127Z,311.92
2022-10-01T03:46:42.693Z,483.65
2022-10-01T03:47:44.148Z,737.72
2022-10-01T03:48:47.123Z,510.40
2022-10-01T03:49:48.548Z,502.70
2022-10-01T03:50:54.170Z,480.40
2022-10-01T03:51:55.776Z,631.35
2022-10-01T03:52:57.316Z,587.22
2022-10-01T03:53:59.213Z,511.08
2022-10-01T03:55:00.631Z,569.08
2022-10-01T03:56:02.064Z,606.20
2022-10-01T03:57:03.686Z,567.38
2022-10-01T03:58:05.126Z,583.08
2022-10-01T03:59:06.980Z,500.88
2022-10-01T04:00:10.035Z,465.35
2022-10-01T04:01:11.508Z,553.25
2022-10-01T04:02:13.089Z,617.70
2022-10-01T04:03:15.352Z,576.63
2022-10-01T04:04:18.165Z,539.78
2022-10-01T04:05:19.649Z,654.60
2022-10-01T04:06:21.086Z,604.47
2022-10-01T04:07:22.552Z,502.23
2022-10-01T04:08:24.606Z,557.70
2022-10-01T04:09:26.122Z,553.35
2022-10-01T04:10:27.597Z,551.45
2022-10-01T04:11:29.093Z,485.95
2022-10-01T04:12:30.507Z,445.75
2022-10-01T04:13:31.998Z,469.58
2022-10-01T04:14:33.453Z,449.05
2022-10-01T04:15:35.174Z,575.80
2022-10-01T04:16:36.703Z,521.42
2022-10-01T04:17:39.943Z,572.38
2022-10-01T04:18:44.224Z,580.13
2022-10-01T04:19:47.118Z,543.22
2022-10-01T04:20:48.638Z,426.63
2022-10-01T04:21:50.070Z,558.33
2022-10-01T04:22:51.535Z,438.35
2022-10-01T04:23:52.962Z,736.35
2022-10-01T04:24:54.398Z,623.92
2022-10-01T04:25:59.740Z,474.48
2022-10-01T04:27:01.219Z,661.63
2022-10-01T04:28:05.801Z,490.35
2022-10-01T04:29:07.341Z,389.92
2022-10-01T04:30:10.236Z,459.42
2022-10-01T04:31:11.830Z,308.27
2022-10-01T04:32:13.360Z,266.80
2022-10-01T04:33:16.351Z,515.83
2022-10-01T04:34:17.797Z,503.73
2022-10-01T04:35:20.923Z,488.77
2022-10-01T04:36:23.421Z,111.15
2022-10-01T04:37:24.895Z,218.10
2022-10-01T04:38:26.328Z,518.88
2022-10-01T04:39:27.777Z,588.92
2022-10-01T04:40:30.001Z,254.73
2022-10-01T04:41:32.196Z,239.10
2022-10-01T04:42:33.813Z,461.58
2022-10-01T04:43:35.284Z,125.43
2022-10-01T04:44:36.689Z,98.90
2022-10-01T04:45:38.636Z,58.10
2022-10-01T04:46:40.121Z,51.40
2022-10-01T04:47:47.428Z,50.85
2022-10-01T04:48:49.109Z,56.40
2022-10-01T04:49:50.551Z,64.15
2022-10-01T04:50:53.477Z,54.22
2022-10-01T04:51:54.939Z,62.15
2022-10-01T04:52:56.718Z,61.70
2022-10-01T04:53:58.147Z,59.03
2022-10-01T04:54:59.597Z,53.60
2022-10-01T04:56:01.460Z,51.33
2022-10-01T04:57:02.889Z,47.90
2022-10-01T04:58:04.371Z,48.67
2022-10-01T04:59:05.869Z,47.88
2022-10-01T05:00:09.064Z,43.15
2022-10-01T05:01:10.549Z,45.53
2022-10-01T05:02:12.021Z,40.75
2022-10-01T05:03:13.477Z,45.30
2022-10-01T05:04:14.977Z,45.63
2022-10-01T05:05:17.696Z,38.22
2022-10-01T05:06:20.497Z,38.75
2022-10-01T05:07:22.114Z,36.30
2022-10-01T05:08:23.608Z,38.17
2022-10-01T05:09:25.028Z,36.42
2022-10-01T05:10:26.601Z,37.22
2022-10-01T05:11:28.082Z,35.50
2022-10-01T05:12:29.505Z,40.60
2022-10-01T05:13:30.928Z,38.05
2022-10-01T05:14:32.362Z,49.10
2022-10-01T05:15:33.841Z,40.65
2022-10-01T05:16:35.321Z,43.45
2022-10-01T05:17:36.808Z,45.42
2022-10-01T05:18:38.253Z,44.28
2022-10-01T05:19:39.665Z,46.22
2022-10-01T05:20:41.173Z,39.47
2022-10-01T05:21:43.964Z,41.30
2022-10-01T05:22:45.963Z,41.80
2022-10-01T05:23:47.448Z,43.13
2022-10-01T05:24:48.900Z,41.15
2022-10-01T05:25:50.385Z,39.95
2022-10-01T05:26:52.154Z,37.42
2022-10-01T05:27:53.670Z,39.88
2022-10-01T05:28:55.104Z,42.95
2022-10-01T05:29:56.571Z,40.53
2022-10-01T05:30:59.030Z,42.25
2022-10-01T05:32:00.945Z,39.53
2022-10-01T05:33:04.761Z,42.78
2022-10-01T05:34:06.245Z,38.33
2022-10-01T05:35:08.367Z,38.47
2022-10-01T05:36:09.829Z,30.58
2022-10-01T05:37:12.645Z,34.83
2022-10-01T05:38:14.138Z,42.17
2022-10-01T05:39:15.544Z,42.83
2022-10-01T05:40:16.969Z,34.83
2022-10-01T05:41:18.425Z,42.90
2022-10-01T05:42:19.821Z,41.65
2022-10-01T05:43:21.344Z,45.83
2022-10-01T05:44:23.026Z,51.70
2022-10-01T05:45:26.428Z,43.55
2022-10-01T05:46:27.956Z,50.22
2022-10-01T05:47:29.437Z,43.35
2022-10-01T05:48:31.212Z,45.00
2022-10-01T05:49:33.158Z,46.75
2022-10-01T05:50:36.606Z,42.67
2022-10-01T05:51:38.075Z,40.50
2022-10-01T05:52:48.283Z,41.60
2022-10-01T05:53:50.574Z,41.22
2022-10-01T05:54:52.183Z,39.08
2022-10-01T05:55:53.593Z,40.28
2022-10-01T05:56:55.077Z,41.35
2022-10-01T05:57:57.870Z,46.10
2022-10-01T05:58:59.328Z,44.75
2022-10-01T06:00:01.134Z,43.95
2022-10-01T06:01:02.906Z,44.88
2022-10-01T06:02:04.494Z,50.10
2022-10-01T06:03:07.011Z,49.28
2022-10-01T06:04:09.880Z,43.92
2022-10-01T06:05:11.320Z,51.03
2022-10-01T06:06:12.782Z,48.03
2022-10-01T06:07:14.231Z,43.15
2022-10-01T06:08:17.136Z,41.38
2022-10-01T06:09:18.597Z,44.30
2022-10-01T06:10:20.869Z,41.67
2022-10-01T06:11:22.381Z,36.83
2022-10-01T06:12:23.814Z,42.88
2022-10-01T06:13:25.227Z,42.97
2022-10-01T06:14:26.723Z,42.63
2022-10-01T06:15:28.515Z,48.78
2022-10-01T06:16:29.973Z,47.28
2022-10-01T06:17:31.495Z,43.45
2022-10-01T06:18:33.017Z,47.65
2022-10-01T06:19:34.473Z,42.55
2022-10-01T06:20:36.725Z,43.10
2022-10-01T06:21:38.246Z,45.58
2022-10-01T06:22:40.817Z,42.65
2022-10-01T06:23:43.614Z,41.13
2022-10-01T06:24:45.019Z,44.67
2022-10-01T06:25:46.471Z,46.60
2022-10-01T06:26:47.994Z,43.38
2022-10-01T06:27:52.141Z,41.78
2022-10-01T06:28:53.670Z,48.83
2022-10-01T06:29:55.113Z,42.63
2022-10-01T06:30:56.573Z,38.75
2022-10-01T06:31:58.450Z,39.67
2022-10-01T06:33:00.329Z,39.15
2022-10-01T06:34:01.792Z,42.00
2022-10-01T06:35:03.571Z,39.97
2022-10-01T06:36:05.232Z,41.22
2022-10-01T06:37:06.704Z,36.60
2022-10-01T06:38:08.295Z,36.88
2022-10-01T06:39:11.064Z,38.70
2022-10-01T06:40:12.592Z,38.00
2022-10-01T06:41:14.032Z,40.58
2022-10-01T06:42:15.574Z,41.97
2022-10-01T06:43:16.992Z,41.20
2022-10-01T06:44:18.449Z,35.83
2022-10-01T06:45:20.028Z,45.92
2022-10-01T06:46:21.580Z,41.17
2022-10-01T06:47:23.061Z,42.72
2022-10-01T06:48:24.456Z,43.08
2022-10-01T06:49:25.895Z,49.65
2022-10-01T06:50:27.367Z,42.10
2022-10-01T06:51:28.871Z,42.80
2022-10-01T06:52:30.332Z,42.33
2022-10-01T06:53:31.841Z,51.47
2022-10-01T06:54:34.674Z,39.97
2022-10-01T06:55:37.404Z,49.47
2022-10-01T06:56:38.903Z,39.88
2022-10-01T06:57:40.361Z,41.50
2022-10-01T06:58:41.810Z,47.67
2022-10-01T06:59:43.258Z,39.67
2022-10-01T07:00:45.330Z,43.25
2022-10-01T07:01:51.013Z,35.42
2022-10-01T07:02:55.695Z,40.17
2022-10-01T07:03:57.133Z,37.83
2022-10-01T07:04:59.369Z,35.30
2022-10-01T07:06:02.702Z,40.38
2022-10-01T07:07:04.174Z,44.42
2022-10-01T07:08:06.465Z,41.03
2022-10-01T07:09:07.892Z,38.15
2022-10-01T07:10:11.972Z,43.20
2022-10-01T07:11:13.460Z,37.67
2022-10-01T07:12:14.945Z,43.45
2022-10-01T07:13:18.091Z,36.33
2022-10-01T07:14:19.630Z,36.95
2022-10-01T07:15:22.340Z,40.28
2022-10-01T07:16:24.033Z,37.00
2022-10-01T07:17:25.556Z,40.33
2022-10-01T07:18:27.017Z,37.65
2022-10-01T07:19:28.454Z,39.70
2022-10-01T07:20:29.945Z,35.40
2022-10-01T07:21:31.828Z,36.40
2022-10-01T07:22:33.551Z,37.47
2022-10-01T07:23:35.017Z,36.30
2022-10-01T07:24:36.468Z,34.05
2022-10-01T07:25:40.771Z,37.03
2022-10-01T07:26:42.244Z,35.05
2022-10-01T07:27:43.776Z,31.45
2022-10-01T07:28:45.301Z,31.92
2022-10-01T07:29:46.804Z,31.17
2022-10-01T07:30:58.337Z,31.00
2022-10-01T07:33:02.000Z,33.00
2022-10-01T07:34:03.432Z,25.75
2022-10-01T07:35:05.855Z,29.88
2022-10-01T07:36:09.252Z,27.33
2022-10-01T07:37:10.879Z,36.42
2022-10-01T07:38:12.318Z,30.60
2022-10-01T07:39:13.761Z,30.13
2022-10-01T07:40:16.056Z,26.55
2022-10-01T07:41:18.843Z,28.30
2022-10-01T07:42:20.337Z,28.17
2022-10-01T07:43:21.878Z,31.50
2022-10-01T07:44:23.424Z,33.80
2022-10-01T07:45:25.670Z,23.73
2022-10-01T07:46:29.455Z,29.90
2022-10-01T07:47:32.943Z,22.90
2022-10-01T07:48:34.365Z,27.30
2022-10-01T07:49:35.834Z,26.63
2022-10-01T07:50:37.320Z,26.83
2022-10-01T07:51:38.893Z,25.08
2022-10-01T07:52:40.291Z,26.02
2022-10-01T07:53:41.719Z,31.85
2022-10-01T07:54:43.185Z,28.63
2022-10-01T07:55:44.743Z,24.63
2022-10-01T07:56:47.657Z,26.90
2022-10-01T07:57:52.191Z,29.65
2022-10-01T07:58:55.142Z,27.45
2022-10-01T07:59:56.611Z,21.65
2022-10-01T08:00:58.190Z,22.85
2022-10-01T08:01:59.718Z,20.60
2022-10-01T08:03:01.589Z,20.70
2022-10-01T08:04:04.846Z,20.35
2022-10-01T08:05:07.759Z,28.13
2022-10-01T08:06:11.849Z,22.45
2022-10-01T08:07:13.316Z,24.13
2022-10-01T08:08:14.738Z,21.02
2022-10-01T08:09:16.289Z,19.75
2022-10-01T08:10:19.246Z,20.42
2022-10-01T08:11:20.663Z,21.95
2022-10-01T08:12:23.504Z,22.00
2022-10-01T08:13:24.972Z,21.00
2022-10-01T08:14:26.524Z,22.63
2022-10-01T08:15:27.987Z,18.80
2022-10-01T08:16:29.531Z,18.75
2022-10-01T08:17:30.988Z,18.05
2022-10-01T08:18:33.034Z,23.73
2022-10-01T08:19:34.602Z,22.10
2022-10-01T08:20:36.067Z,21.02
2022-10-01T08:21:37.587Z,19.45
2022-10-01T08:22:42.107Z,19.70
2022-10-01T08:23:43.949Z,19.73
2022-10-01T08:24:45.382Z,19.88
2022-10-01T08:25:47.568Z,18.80
2022-10-01T08:26:52.491Z,19.10
2022-10-01T08:27:55.356Z,21.15
2022-10-01T08:28:57.033Z,18.95
2022-10-01T08:29:58.473Z,21.58
2022-10-01T08:31:04.924Z,17.23
2022-10-01T08:32:06.387Z,16.75
2022-10-01T08:33:10.443Z,17.42
2022-10-01T08:34:11.929Z,19.73
2022-10-01T08:35:13.492Z,17.90
2022-10-01T08:36:14.895Z,16.77
2022-10-01T08:37:16.311Z,16.50
2022-10-01T08:38:17.775Z,16.23
2022-10-01T08:39:19.248Z,18.67
2022-10-01T08:40:21.111Z,16.58
2022-10-01T08:41:48.197Z,16.60
2022-10-01T08:42:57.335Z,13.27
2022-10-01T08:44:01.872Z,13.43
2022-10-01T08:45:10.169Z,16.10
2022-10-01T08:46:16.081Z,12.65
2022-10-01T08:47:30.984Z,14.05
2022-10-01T08:48:47.541Z,13.20
2022-10-01T08:49:53.945Z,12.48
2022-10-01T08:50:59.252Z,19.80
2022-10-01T08:52:06.010Z,18.83
2022-10-01T08:53:14.394Z,17.80
2022-10-01T08:54:28.852Z,12.32
2022-10-01T08:55:32.991Z,15.80
2022-10-01T08:56:36.997Z,14.40
2022-10-01T08:57:43.033Z,13.23
2022-10-01T08:58:49.900Z,12.57
2022-10-01T08:59:55.221Z,13.38
2022-10-01T09:00:56.757Z,10.55
2022-10-01T09:01:58.616Z,11.02
2022-10-01T09:03:05.005Z,10.77
2022-10-01T09:04:06.621Z,10.48
2022-10-01T09:05:20.274Z,12.48
2022-10-01T09:06:23.945Z,13.18
2022-10-01T09:07:41.758Z,12.63
2022-10-01T09:08:50.983Z,13.82
2022-10-01T09:10:00.456Z,9.52
2022-10-01T09:11:06.985Z,10.60
2022-10-01T09:12:22.170Z,10.93
2022-10-01T09:13:55.691Z,12.80
2022-10-01T09:15:15.292Z,11.05
2022-10-01T09:16:23.798Z,11.35
2022-10-01T09:17:41.974Z,12.18
2022-10-01T09:18:53.160Z,12.80
2022-10-01T09:20:11.661Z,11.38
2022-10-01T09:21:17.837Z,9.75
2022-10-01T09:22:27.356Z,11.20
2022-10-01T09:23:30.584Z,9.82
2022-10-01T09:24:42.297Z,9.98
2022-10-01T09:25:45.760Z,10.15
2022-10-01T09:26:48.488Z,9.95
2022-10-01T09:27:51.146Z,9.68
2022-10-01T09:28:55.643Z,9.65
2022-10-01T09:30:00.992Z,9.60
2022-10-01T09:31:12.916Z,10.60
2022-10-01T09:32:17.951Z,8.45
2022-10-01T09:33:21.850Z,9.18
2022-10-01T09:34:30.002Z,8.68
2022-10-01T09:35:38.697Z,12.48
2022-10-01T09:36:51.848Z,8.48
2022-10-01T09:37:57.144Z,8.20
2022-10-01T09:39:09.711Z,8.18
2022-10-01T09:40:17.365Z,8.95
2022-10-01T09:41:19.600Z,12.30
2022-10-01T09:42:26.247Z,8.32
2022-10-01T09:43:29.957Z,6.13
2022-10-01T09:44:33.777Z,6.40
2022-10-01T09:45:37.168Z,7.57
2022-10-01T09:46:38.656Z,5.82
2022-10-01T09:47:41.316Z,5.53
2022-10-01T09:48:49.169Z,6.47
2022-10-01T09:49:50.616Z,6.55
2022-10-01T09:50:56.385Z,27.55
2022-10-01T09:52:01.029Z,6.75
2022-10-01T09:53:02.752Z,14.07
2022-10-01T09:54:12.337Z,5.68
2022-10-01T09:55:25.384Z,5.93
2022-10-01T09:56:30.522Z,5.05
2022-10-01T09:57:34.394Z,6.72
2022-10-01T09:58:38.961Z,6.40
2022-10-01T09:59:47.145Z,5.13
2022-10-01T10:00:48.662Z,4.35
2022-10-01T10:01:53.448Z,5.47
2022-10-01T10:02:55.958Z,5.72
2022-10-01T10:03:57.822Z,5.20
2022-10-01T10:05:00.373Z,5.13
2022-10-01T10:06:01.884Z,3.95
2022-10-01T10:07:05.467Z,4.88
2022-10-01T10:08:12.918Z,3.85
2022-10-01T10:09:17.363Z,3.95
2022-10-01T10:10:25.728Z,3.30
2022-10-01T10:11:29.928Z,5.65
2022-10-01T10:12:31.344Z,3.78
2022-10-01T10:13:34.616Z,3.90
2022-10-01T10:14:38.899Z,3.67
2022-10-01T10:15:49.949Z,4.05
2022-10-01T10:16:51.476Z,3.45
2022-10-01T10:17:53.998Z,5.68
2022-10-01T10:18:58.345Z,3.90
2022-10-01T10:19:59.957Z,6.07
2022-10-01T10:21:04.700Z,3.97
2022-10-01T10:22:22.021Z,4.45
2022-10-01T10:23:24.952Z,3.95
2022-10-01T10:24:31.621Z,4.90
2022-10-01T10:25:33.088Z,3.95
2022-10-01T10:26:37.477Z,3.85
2022-10-01T10:27:50.810Z,5.18
2022-10-01T10:28:52.292Z,3.35
2022-10-01T10:30:05.973Z,5.20
2022-10-01T10:31:14.165Z,5.05
2022-10-01T10:32:26.499Z,5.78
2022-10-01T10:33:28.009Z,5.40
2022-10-01T10:34:33.413Z,5.18
2022-10-01T10:35:35.224Z,3.13
2022-10-01T10:36:37.461Z,3.45
2022-10-01T10:37:46.621Z,3.72
2022-10-01T10:38:50.808Z,3.05
2022-10-01T10:39:53.489Z,3.42
2022-10-01T10:40:55.186Z,4.20
2022-10-01T10:41:57.922Z,3.42
2022-10-01T10:42:59.863Z,4.90
2022-10-01T10:44:04.789Z,7.00
2022-10-01T10:45:15.974Z,5.05
2022-10-01T10:46:25.738Z,4.18
2022-10-01T10:47:27.581Z,3.95
2022-10-01T10:48:32.234Z,3.88
2022-10-01T10:49:45.128Z,6.15
2022-10-01T10:50:47.029Z,3.70
2022-10-01T10:51:51.005Z,2.78
2022-10-01T10:52:52.480Z,3.20
2022-10-01T10:53:53.943Z,4.35
2022-10-01T10:54:57.316Z,3.17
2022-10-01T10:56:00.134Z,3.08
2022-10-01T10:57:03.445Z,3.85
2022-10-01T10:58:14.031Z,3.90
2022-10-01T10:59:15.464Z,2.60
2022-10-01T11:00:19.638Z,3.20
2022-10-01T11:01:28.901Z,4.82
2022-10-01T11:02:32.430Z,2.20
2022-10-01T11:03:37.527Z,2.40
2022-10-01T11:04:41.495Z,2.08
2022-10-01T11:05:43.504Z,2.97
2022-10-01T11:06:54.932Z,7.00
2022-10-01T11:09:02.307Z,2.20
2022-10-01T11:10:20.092Z,3.40
2022-10-01T11:11:36.686Z,3.25
2022-10-01T11:12:54.570Z,2.65
2022-10-01T11:14:09.250Z,2.83
2022-10-01T11:15:30.131Z,3.72
2022-10-01T11:16:47.156Z,4.03
2022-10-01T11:18:13.566Z,4.55
2022-10-01T11:19:30.934Z,2.78
2022-10-01T11:20:38.948Z,4.30
2022-10-01T11:21:56.046Z,2.78
2022-10-01T11:23:11.631Z,2.58
2022-10-01T11:24:40.221Z,2.42
2022-10-01T11:25:50.948Z,8.43
2022-10-01T11:26:58.434Z,6.15
2022-10-01T11:28:13.690Z,8.38
2022-10-01T11:29:26.084Z,3.40
2022-10-01T11:30:37.490Z,2.85
2022-10-01T11:31:47.037Z,2.40
2022-10-01T11:33:00.618Z,3.85
2022-10-01T11:34:24.218Z,4.03
2022-10-01T11:35:40.267Z,6.90
2022-10-01T11:36:54.641Z,2.65
2022-10-01T11:38:07.486Z,4.93
2022-10-01T11:39:13.535Z,3.42
2022-10-01T11:40:22.325Z,3.05
2022-10-01T11:41:34.720Z,2.78
2022-10-01T11:42:37.294Z,5.85
2022-10-01T11:43:43.389Z,7.22
2022-10-01T11:44:49.215Z,3.45
2022-10-01T11:45:55.929Z,2.70
2022-10-01T11:47:03.524Z,2.60
2022-10-01T11:48:11.100Z,3.63
2022-10-01T11:49:26.156Z,3.42
2022-10-01T11:50:31.278Z,2.60
2022-10-01T11:51:40.018Z,3.28
2022-10-01T11:52:47.905Z,3.63
2022-10-01T11:53:53.323Z,3.42
2022-10-01T11:55:02.499Z,4.95
2022-10-01T11:56:10.699Z,2.25
2022-10-01T11:57:15.629Z,4.00
2022-10-01T11:58:28.238Z,2.53
2022-10-01T11:59:37.387Z,3.15
2022-10-01T12:00:41.396Z,3.83
2022-10-01T12:01:49.553Z,2.60
2022-10-01T12:02:58.560Z,3.28
2022-10-01T12:04:27.719Z,2.85
2022-10-01T12:05:31.826Z,2.53
2022-10-01T12:06:37.803Z,2.55
2022-10-01T12:07:47.378Z,2.88
2022-10-01T12:08:53.976Z,4.97
2022-10-01T12:10:03.273Z,2.45
2022-10-01T12:11:14.560Z,4.55
2022-10-01T12:12:21.064Z,2.38
2022-10-01T12:13:27.911Z,4.35
2022-10-01T12:14:37.692Z,2.90
2022-10-01T12:15:47.581Z,3.17
2022-10-01T12:16:54.641Z,2.50
2022-10-01T12:18:03.253Z,2.60
2022-10-01T12:19:12.056Z,4.53
2022-10-01T12:20:21.590Z,3.42
2022-10-01T12:21:27.565Z,3.72
2022-10-01T12:22:31.411Z,2.70
2022-10-01T12:23:41.426Z,3.42
2022-10-01T12:24:44.460Z,3.50
2022-10-01T12:25:52.344Z,4.28
2022-10-01T12:27:02.424Z,4.97
2022-10-01T12:28:09.938Z,3.97
2022-10-01T12:29:17.813Z,2.83
2022-10-01T12:30:21.115Z,3.95
2022-10-01T12:31:28.573Z,6.55
2022-10-01T12:32:40.056Z,3.22
2022-10-01T12:35:05.816Z,3.67
2022-10-01T12:36:17.920Z,2.75
2022-10-01T12:37:32.578Z,3.72
2022-10-01T12:39:02.233Z,2.60
2022-10-01T12:40:16.110Z,2.20
2022-10-01T12:41:31.392Z,2.05
2022-10-01T12:43:03.215Z,2.38
2022-10-01T12:44:19.370Z,3.72
2022-10-01T12:45:30.023Z,7.75
2022-10-01T12:46:39.214Z,2.85
2022-10-01T12:47:52.029Z,3.33
2022-10-01T12:49:03.808Z,2.10
2022-10-01T12:50:16.232Z,3.13
2022-10-01T12:51:36.923Z,2.78
2022-10-01T12:52:46.065Z,3.38
2022-10-01T12:54:00.145Z,3.20
2022-10-01T12:55:28.401Z,3.58
2022-10-01T12:56:34.123Z,2.20
2022-10-01T12:57:46.129Z,3.63
2022-10-01T12:59:03.500Z,2.55
2022-10-01T13:00:11.729Z,2.83
2022-10-01T13:01:28.180Z,6.45
2022-10-01T13:02:56.355Z,3.13
2022-10-01T13:04:31.972Z,6.35
2022-10-01T13:05:40.354Z,3.95
2022-10-01T13:06:59.213Z,5.63
2022-10-01T13:08:23.746Z,6.82
2022-10-01T13:09:37.354Z,6.05
2022-10-01T13:10:53.989Z,3.00
2022-10-01T13:12:07.115Z,2.65
2022-10-01T13:13:14.808Z,1.98
2022-10-01T13:14:17.339Z,2.20
2022-10-01T13:15:22.471Z,3.03
2022-10-01T13:16:31.002Z,4.93
2022-10-01T13:17:39.518Z,3.65
2022-10-01T13:18:53.168Z,2.65
2022-10-01T13:20:03.412Z,3.50
2022-10-01T13:21:12.390Z,2.95
2022-10-01T13:22:21.365Z,1.90
2022-10-01T13:23:29.989Z,4.15
2022-10-01T13:24:37.515Z,2.85
2022-10-01T13:25:45.064Z,2.47
2022-10-01T13:26:52.300Z,3.10
2022-10-01T13:27:59.393Z,6.25
2022-10-01T13:29:14.158Z,2.30
2022-10-01T13:30:18.387Z,3.78
2022-10-01T13:31:19.926Z,2.63
2022-10-01T13:32:31.399Z,3.20
2022-10-01T13:33:33.311Z,3.13
2022-10-01T13:34:38.432Z,1.60
2022-10-01T13:35:41.187Z,5.38
2022-10-01T13:36:42.644Z,2.90
2022-10-01T13:37:44.093Z,4.15
2022-10-01T13:38:45.913Z,3.67
2022-10-01T13:39:48.030Z,3.40
2022-10-01T13:40:57.245Z,3.03
2022-10-01T13:41:58.765Z,2.95
2022-10-01T13:43:02.959Z,2.40
2022-10-01T13:44:19.393Z,2.90
2022-10-01T13:45:25.804Z,2.35
2022-10-01T13:46:31.608Z,1.77
2022-10-01T13:47:36.440Z,3.30
2022-10-01T13:48:46.432Z,2.40
2022-10-01T13:49:55.068Z,2.85
2022-10-01T13:51:00.786Z,2.50
2022-10-01T13:52:02.435Z,2.95
2022-10-01T13:53:07.365Z,2.50
2022-10-01T13:54:18.622Z,2.33
2022-10-01T13:56:29.038Z,3.17
2022-10-01T13:57:33.826Z,2.88
2022-10-01T13:58:38.615Z,2.35
2022-10-01T13:59:40.170Z,3.40
2022-10-01T14:00:48.271Z,3.25
2022-10-01T14:01:49.805Z,4.55
2022-10-01T14:03:04.461Z,2.47
2022-10-01T14:04:16.345Z,4.78
2022-10-01T14:05:27.887Z,3.50
2022-10-01T14:07:38.318Z,9.18
2022-10-01T14:08:44.808Z,3.28
2022-10-01T14:09:50.314Z,3.22